createdAt,value
2018-06-16T19:04:32.307Z,13.75
2018-06-16T19:07:01.202Z,13.85
2018-06-16T19:09:29.889Z,14.13
2018-06-16T19:11:57.990Z,14.00
2018-06-16T19:14:26.014Z,15.78
2018-06-16T19:16:54.460Z,17.30
2018-06-16T19:19:22.551Z,13.72
2018-06-16T19:21:50.561Z,14.30
2018-06-16T19:24:19.650Z,13.50
2018-06-16T19:26:47.478Z,14.70
2018-06-16T19:29:15.503Z,14.95
2018-06-16T19:31:43.553Z,14.03
2018-06-16T19:34:11.568Z,13.78
2018-06-16T19:36:39.367Z,18.23
2018-06-16T19:39:09.526Z,17.10
2018-06-16T19:41:37.827Z,15.40
2018-06-16T19:44:07.070Z,16.20
2018-06-16T19:46:34.897Z,14.85
2018-06-16T19:49:02.895Z,15.40
2018-06-16T19:51:30.876Z,17.30
2018-06-16T19:53:58.905Z,14.00
2018-06-16T19:56:26.669Z,14.73
2018-06-16T19:58:54.811Z,20.12
2018-06-16T20:01:22.855Z,13.45
2018-06-16T20:03:50.924Z,13.22
2018-06-16T20:06:18.734Z,13.35
2018-06-16T20:08:46.571Z,13.68
2018-06-16T20:11:14.483Z,16.20
2018-06-16T20:13:43.618Z,14.03
2018-06-16T20:16:11.612Z,13.70
2018-06-16T20:18:39.644Z,13.90
2018-06-16T20:21:07.700Z,14.70
2018-06-16T20:23:35.721Z,14.33
2018-06-16T20:26:03.768Z,15.15
2018-06-16T20:28:31.818Z,18.90
2018-06-16T20:30:59.835Z,16.48
2018-06-16T20:33:27.851Z,16.00
2018-06-16T20:35:55.950Z,14.05
2018-06-16T20:38:24.003Z,13.78
2018-06-16T20:40:51.881Z,13.48
2018-06-16T20:43:19.919Z,13.72
2018-06-16T20:45:47.939Z,14.35
2018-06-16T20:48:15.773Z,13.48
2018-06-16T20:50:43.853Z,12.58
2018-06-16T20:53:12.331Z,11.90
2018-06-16T20:55:40.124Z,13.72
2018-06-16T20:58:09.237Z,12.90
2018-06-16T21:00:37.367Z,13.28
2018-06-16T21:03:05.772Z,12.78
2018-06-16T21:05:33.719Z,13.15
2018-06-16T21:08:01.852Z,15.48
2018-06-16T21:10:29.899Z,13.75
2018-06-16T21:12:57.947Z,15.05
2018-06-16T21:15:26.034Z,15.18
2018-06-16T21:17:53.840Z,16.15
2018-06-16T21:20:21.977Z,14.20
2018-06-16T21:22:50.014Z,14.55
2018-06-16T21:25:18.434Z,14.93
2018-06-16T21:27:46.477Z,16.45
2018-06-16T21:30:14.625Z,17.70
2018-06-16T21:32:42.674Z,15.58
2018-06-16T21:35:10.681Z,14.38
2018-06-16T21:37:38.728Z,13.25
2018-06-16T21:40:06.549Z,15.55
2018-06-16T21:42:35.445Z,14.60
2018-06-16T21:45:03.944Z,14.05
2018-06-16T21:47:31.965Z,15.25
2018-06-16T21:50:00.025Z,13.95
2018-06-16T21:52:28.080Z,14.18
2018-06-16T21:54:56.145Z,12.58
2018-06-16T21:57:24.139Z,12.95
2018-06-16T21:59:51.951Z,13.75
2018-06-16T22:02:19.892Z,11.85
2018-06-16T22:04:47.803Z,12.55
2018-06-16T22:07:16.245Z,12.18
2018-06-16T22:09:44.076Z,12.07
2018-06-16T22:12:12.051Z,12.10
2018-06-16T22:14:40.047Z,14.10
2018-06-16T22:17:08.493Z,15.20
2018-06-16T22:19:36.536Z,13.20
2018-06-16T22:22:04.371Z,12.65
2018-06-16T22:24:32.363Z,12.85
2018-06-16T22:27:00.514Z,12.63
2018-06-16T22:29:29.715Z,14.58
2018-06-16T22:31:57.737Z,11.30
2018-06-16T22:34:25.785Z,11.20
2018-06-16T22:36:53.995Z,11.63
2018-06-16T22:39:22.072Z,10.60
2018-06-16T22:41:49.833Z,11.25
2018-06-16T22:44:17.867Z,11.60
2018-06-16T22:46:45.637Z,10.40
2018-06-16T22:49:13.627Z,10.03
2018-06-16T22:51:41.702Z,10.23
2018-06-16T22:54:09.761Z,10.90
2018-06-16T22:56:38.578Z,9.90
2018-06-16T22:59:06.696Z,11.18
2018-06-16T23:01:34.716Z,10.90
2018-06-16T23:04:02.748Z,11.95
2018-06-16T23:06:30.741Z,10.35
2018-06-16T23:08:58.779Z,11.45
2018-06-16T23:11:26.745Z,10.98
2018-06-16T23:13:54.707Z,10.78
2018-06-16T23:16:23.087Z,11.00
2018-06-16T23:18:50.874Z,12.07
2018-06-16T23:21:18.892Z,13.28
2018-06-16T23:23:46.931Z,13.40
2018-06-16T23:26:14.889Z,12.73
2018-06-16T23:28:42.670Z,13.20
2018-06-16T23:31:10.673Z,15.08
2018-06-16T23:33:38.703Z,13.98
2018-06-16T23:36:06.675Z,13.88
2018-06-16T23:38:34.692Z,14.83
2018-06-16T23:41:04.052Z,14.35
2018-06-16T23:43:32.061Z,13.88
2018-06-16T23:46:00.085Z,13.80
2018-06-16T23:48:27.846Z,13.15
2018-06-16T23:50:55.844Z,13.58
2018-06-16T23:53:23.618Z,13.00
2018-06-16T23:55:51.645Z,11.73
2018-06-16T23:58:19.698Z,11.73
